Time;durP1;ratioP1;P1;durP2;ratioP2;P2;SDS_P1;SDS_P2;PMS_P1;PMS_P2;Temp;Humidity;BMP_temperature;BMP_pressure;BME280_temperature;BME280_humidity;BME280_pressure;Samples;Min_cycle;Max_cycle;Signal;HPM_P1;HPM_P2
2022/04/26 03:36:20;;;;;;;45.70;22.85;;;;;;;13.31;74.83;98669.16;4999480;28;20092;-83
2022/04/26 03:38:48;;;;;;;51.92;23.83;;;;;;;13.42;74.37;98675.00;5000817;28;20054;-80
2022/04/26 03:41:15;;;;;;;54.83;22.50;;;;;;;13.49;74.58;98669.72;5004221;28;20042;-80
2022/04/26 03:43:42;;;;;;;41.35;22.45;;;;;;;13.37;74.10;98659.53;5005156;28;20042;-82
2022/04/26 03:46:09;;;;;;;43.90;21.20;;;;;;;13.45;73.61;98658.63;5000838;28;20045;-82
2022/04/26 03:48:37;;;;;;;42.03;22.20;;;;;;;13.51;74.09;98667.41;4998338;28;20116;-81
2022/04/26 03:51:03;;;;;;;47.30;23.83;;;;;;;13.60;74.29;98668.84;4996471;28;20486;-83
2022/04/26 03:53:29;;;;;;;44.93;22.80;;;;;;;13.73;73.95;98672.34;4999446;28;20500;-80
2022/04/26 03:55:55;;;;;;;38.03;22.50;;;;;;;13.78;73.99;98672.13;5000286;28;20718;-81
2022/04/26 03:58:22;;;;;;;43.22;21.65;;;;;;;13.85;73.30;98680.56;5004878;28;20050;-79
2022/04/26 04:00:48;;;;;;;53.95;24.05;;;;;;;13.80;73.28;98678.03;4998714;28;20042;-80
2022/04/26 04:03:14;;;;;;;49.93;23.23;;;;;;;13.75;73.13;98683.00;4981940;28;20423;-82
2022/04/26 04:05:42;;;;;;;53.72;24.67;;;;;;;13.70;73.50;98678.53;4998915;28;20061;-78
2022/04/26 04:08:08;;;;;;;51.03;24.05;;;;;;;13.71;73.44;98680.16;4997500;28;20499;-76
2022/04/26 04:10:34;;;;;;;47.77;23.93;;;;;;;13.73;73.21;98680.59;5001983;28;20574;-76
2022/04/26 04:13:01;;;;;;;53.30;25.90;;;;;;;13.75;73.13;98672.03;5013117;28;20297;-84
2022/04/26 04:15:27;;;;;;;52.13;25.20;;;;;;;13.81;73.01;98687.09;4996400;28;20515;-76
2022/04/26 04:17:53;;;;;;;46.67;24.30;;;;;;;13.69;73.16;98687.16;4996349;28;20047;-82
2022/04/26 04:20:22;;;;;;;53.30;25.70;;;;;;;13.69;73.39;98687.94;4997596;28;20411;-76
2022/04/26 04:22:49;;;;;;;49.95;25.15;;;;;;;13.73;73.14;98690.78;4997654;28;20046;-77
2022/04/26 04:25:15;;;;;;;47.90;24.33;;;;;;;13.88;73.23;98681.00;4998523;28;20042;-82
2022/04/26 04:27:45;;;;;;;47.70;24.60;;;;;;;13.97;72.51;98681.63;4998061;28;20045;-80
2022/04/26 04:30:12;;;;;;;55.25;25.58;;;;;;;13.95;72.83;98690.25;4995384;28;20411;-77
2022/04/26 04:32:38;;;;;;;53.88;26.27;;;;;;;13.88;72.46;98687.31;4998569;28;20046;-79
2022/04/26 04:35:06;;;;;;;45.77;23.87;;;;;;;13.89;72.22;98682.59;4997236;28;20046;-80
2022/04/26 04:37:33;;;;;;;62.90;27.23;;;;;;;13.98;72.64;98686.00;5013379;28;20676;-77
2022/04/26 04:40:00;;;;;;;54.83;27.05;;;;;;;14.07;71.54;98684.69;4999563;28;20096;-77
2022/04/26 04:42:28;;;;;;;61.90;27.52;;;;;;;14.18;71.40;98686.94;4998204;28;20043;-79
2022/04/26 04:44:54;;;;;;;59.28;28.08;;;;;;;14.24;71.01;98678.06;4995055;28;20042;-77
2022/04/26 04:47:22;;;;;;;60.75;28.63;;;;;;;14.46;71.21;98684.13;4996030;28;20415;-82
2022/04/26 04:49:49;;;;;;;60.97;27.15;;;;;;;14.61;70.16;98680.59;4994842;28;20041;-81
2022/04/26 04:52:17;;;;;;;60.92;27.20;;;;;;;14.71;69.33;98679.28;4998945;28;20034;-79
2022/04/26 04:54:43;;;;;;;54.20;26.40;;;;;;;14.59;68.99;98674.66;5013495;28;20104;-82
2022/04/26 04:57:11;;;;;;;58.90;26.88;;;;;;;14.48;69.38;98682.63;5014904;28;20124;-78
2022/04/26 04:59:38;;;;;;;58.72;26.92;;;;;;;14.51;69.37;98672.88;4997383;28;20042;-83
2022/04/26 05:02:07;;;;;;;49.67;24.87;;;;;;;14.46;68.75;98679.41;4997800;28;20046;-79
2022/04/26 05:04:34;;;;;;;57.30;26.48;;;;;;;14.47;69.98;98667.28;5009880;28;20050;-79
2022/04/26 05:07:02;;;;;;;59.10;28.35;;;;;;;14.59;70.50;98674.66;5009116;28;20042;-80
2022/04/26 05:09:33;;;;;;;50.28;24.83;;;;;;;14.72;69.77;98664.34;5007218;28;20046;-79
2022/04/26 05:12:01;;;;;;;56.28;26.48;;;;;;;14.75;69.25;98656.19;4992891;28;20526;-81
2022/04/26 05:14:28;;;;;;;51.83;26.23;;;;;;;14.80;69.30;98672.44;4992642;28;20050;-79
2022/04/26 05:16:57;;;;;;;52.53;25.35;;;;;;;14.74;69.18;98659.31;4994066;28;20050;-81
2022/04/26 05:19:24;;;;;;;53.97;25.48;;;;;;;14.75;69.15;98666.41;4989066;28;20134;-79
2022/04/26 05:21:50;;;;;;;55.80;25.17;;;;;;;14.73;68.71;98663.97;4992939;28;20451;-83
2022/04/26 05:27:01;;;;;;;48.53;24.70;;;;;;;14.78;67.03;98663.72;4981472;28;20039;-78
2022/04/26 05:29:28;;;;;;;47.20;25.15;;;;;;;14.85;67.62;98665.06;4971796;28;20051;-81
2022/04/26 05:31:56;;;;;;;50.03;25.52;;;;;;;14.90;67.45;98659.25;4973313;28;20039;-77
2022/04/26 05:34:22;;;;;;;54.80;24.53;;;;;;;15.03;66.66;98660.75;4940711;28;20049;-76
2022/04/26 05:36:48;;;;;;;46.17;24.00;;;;;;;15.35;66.88;98652.41;4974121;28;20055;-77
2022/04/26 05:39:14;;;;;;;47.70;24.05;;;;;;;15.46;65.94;98650.66;4974034;28;20093;-76
2022/04/26 05:41:40;;;;;;;56.35;24.77;;;;;;;15.58;65.46;98647.00;4974136;28;20051;-77
2022/04/26 05:44:06;;;;;;;53.65;25.50;;;;;;;15.49;65.46;98645.22;4973264;28;20058;-77
2022/04/26 05:46:33;;;;;;;48.47;23.45;;;;;;;15.63;64.57;98655.78;4975806;28;20046;-76
2022/04/26 05:49:00;;;;;;;51.63;26.10;;;;;;;15.71;64.47;98654.78;4973822;28;20039;-78
2022/04/26 05:51:26;;;;;;;51.95;23.83;;;;;;;15.70;63.82;98644.13;4990196;28;20042;-76
2022/04/26 05:53:52;;;;;;;53.35;24.48;;;;;;;15.77;63.44;98632.44;4961981;28;20076;-77
2022/04/26 05:56:19;;;;;;;69.35;25.20;;;;;;;16.02;64.12;98649.44;4993760;28;20179;-76
2022/04/26 05:58:45;;;;;;;46.67;23.38;;;;;;;16.11;63.47;98641.75;4995453;28;20046;-85
2022/04/26 06:01:12;;;;;;;41.85;24.10;;;;;;;16.04;62.43;98647.91;4996883;28;20042;-80
2022/04/26 06:03:40;;;;;;;48.67;24.42;;;;;;;16.05;61.96;98644.00;4986623;28;20042;-78
2022/04/26 06:06:06;;;;;;;44.72;22.88;;;;;;;16.00;62.80;98647.06;4974479;28;20039;-84
2022/04/26 06:08:33;;;;;;;48.63;24.15;;;;;;;15.98;62.92;98654.88;4972857;28;20145;-84
2022/04/26 06:11:01;;;;;;;49.22;22.63;;;;;;;16.04;61.58;98631.38;4975010;28;20038;-84
2022/04/26 06:13:29;;;;;;;45.70;21.48;;;;;;;16.30;62.10;98643.66;4990025;28;20049;-85
2022/04/26 06:15:55;;;;;;;40.55;20.92;;;;;;;16.23;61.24;98646.28;4986364;28;20127;-76
2022/04/26 06:18:32;;;;;;;;;;;;;;;16.25;61.44;98647.50;4990249;28;20046;-77
2022/04/26 06:21:03;;;;;;;43.25;17.83;;;;;;;16.39;60.47;98649.69;4991960;28;19921;-76
2022/04/26 06:23:29;;;;;;;33.60;18.35;;;;;;;16.26;60.28;98640.03;4992623;28;20507;-77
2022/04/26 06:25:59;;;;;;;41.47;19.23;;;;;;;16.25;59.51;98641.19;4992474;28;20093;-76
2022/04/26 06:28:27;;;;;;;42.05;20.85;;;;;;;16.17;59.86;98651.31;4992077;28;20046;-76
2022/04/26 06:30:55;;;;;;;45.60;19.42;;;;;;;16.13;60.64;98656.75;4992439;28;20458;-76
2022/04/26 06:33:22;;;;;;;35.58;17.33;;;;;;;16.05;59.19;98666.03;5007458;28;20042;-76
2022/04/26 06:35:51;;;;;;;32.95;16.77;;;;;;;16.10;59.76;98662.22;4991874;28;20102;-77
2022/04/26 06:38:18;;;;;;;36.88;18.35;;;;;;;16.09;59.92;98664.19;4993335;28;20125;-77
2022/04/26 06:40:46;;;;;;;35.95;18.42;;;;;;;16.15;60.63;98673.72;4991602;28;20097;-77
2022/04/26 06:43:14;;;;;;;37.75;16.98;;;;;;;16.12;59.19;98674.44;4994451;28;20049;-78
2022/04/26 06:45:40;;;;;;;32.85;17.38;;;;;;;16.33;60.27;98673.25;4994068;28;20050;-75
2022/04/26 06:48:11;;;;;;;36.10;16.98;;;;;;;16.55;58.99;98672.44;4995577;28;20081;-77
2022/04/26 06:50:40;;;;;;;38.63;18.50;;;;;;;16.62;58.86;98675.34;4986439;28;20043;-81
2022/04/26 06:53:07;;;;;;;36.97;17.05;;;;;;;16.51;58.76;98670.81;4976176;28;20038;-75
2022/04/26 06:55:35;;;;;;;26.92;14.95;;;;;;;16.42;58.15;98673.78;4959879;28;20078;-75
2022/04/26 06:58:03;;;;;;;31.83;15.82;;;;;;;16.44;58.35;98675.03;4975618;28;20412;-75
2022/04/26 07:00:30;;;;;;;26.73;14.75;;;;;;;16.58;59.23;98670.91;4976765;28;20042;-77
2022/04/26 07:02:56;;;;;;;23.83;14.00;;;;;;;16.74;57.79;98682.63;4977081;28;20057;-75
2022/04/26 07:05:23;;;;;;;27.27;12.90;;;;;;;16.85;56.39;98677.28;4977488;28;20043;-76
2022/04/26 07:07:51;;;;;;;;;;;;;;;16.85;54.85;98678.13;4976986;28;20097;-84
2022/04/26 07:10:17;;;;;;;29.73;12.63;;;;;;;16.90;55.50;98666.75;4976171;28;19988;-81
2022/04/26 07:12:43;;;;;;;19.85;11.85;;;;;;;16.93;55.03;98661.66;4975470;28;20058;-80
2022/04/26 07:15:10;;;;;;;21.40;10.57;;;;;;;17.09;53.48;98674.13;4980591;28;20100;-80
2022/04/26 07:17:40;;;;;;;45.58;12.82;;;;;;;17.23;54.76;98678.28;4996351;28;20046;-79
2022/04/26 07:20:08;;;;;;;21.52;11.45;;;;;;;16.97;53.69;98674.34;4995852;28;20069;-76
2022/04/26 07:22:36;;;;;;;22.25;11.43;;;;;;;16.94;55.18;98675.09;4995883;28;20415;-76
2022/04/26 07:25:07;;;;;;;21.60;11.45;;;;;;;16.88;55.96;98699.44;4996832;28;20053;-77
2022/04/26 07:27:36;;;;;;;18.85;12.02;;;;;;;16.93;57.10;98686.50;4997101;28;20133;-75
2022/04/26 07:30:04;;;;;;;22.15;12.25;;;;;;;16.94;56.59;98680.59;4994983;28;20468;-75
2022/04/26 07:35:16;;;;;;;22.63;13.30;;;;;;;16.87;57.08;98680.50;4976168;28;20491;-75
2022/04/26 07:37:44;;;;;;;23.40;13.98;;;;;;;16.73;56.77;98675.53;4974699;28;20358;-76
2022/04/26 07:40:15;;;;;;;24.73;13.32;;;;;;;16.67;57.64;98668.72;4981783;28;20055;-75
2022/04/26 07:42:43;;;;;;;26.50;11.32;;;;;;;16.82;56.45;98669.75;4990741;28;20054;-76
2022/04/26 07:45:12;;;;;;;19.40;10.63;;;;;;;17.01;55.41;98675.19;4957905;28;20046;-79
2022/04/26 07:47:48;;;;;;;22.98;11.18;;;;;;;17.12;55.59;98667.88;4990110;28;20045;-77
2022/04/26 07:50:19;;;;;;;21.77;10.75;;;;;;;17.31;54.52;98669.69;4975287;28;20039;-76
2022/04/26 07:52:45;;;;;;;20.83;10.13;;;;;;;17.35;53.70;98675.25;4975323;28;20435;-76
2022/04/26 07:55:13;;;;;;;20.90;9.57;;;;;;;17.31;52.60;98680.75;4974808;28;20051;-75
2022/04/26 07:57:51;;;;;;;16.30;9.82;;;;;;;17.31;53.36;98672.47;4973512;28;20290;-75
2022/04/26 08:00:21;;;;;;;19.60;9.40;;;;;;;17.25;52.80;98679.50;4974715;28;20126;-76
2022/04/26 08:02:50;;;;;;;18.60;10.00;;;;;;;17.19;53.62;98678.22;4974975;28;20807;-75
2022/04/26 08:05:18;;;;;;;19.90;9.63;;;;;;;17.20;52.85;98679.03;4987336;28;20042;-78
2022/04/26 08:07:45;;;;;;;19.48;10.63;;;;;;;17.19;53.40;98667.19;4976287;28;20045;-78
2022/04/26 08:10:12;;;;;;;;;;;;;;;17.14;53.84;98679.31;4977415;28;20065;-76
2022/04/26 08:12:48;;;;;;;20.83;9.18;;;;;;;17.15;53.21;98674.59;4976787;28;19926;-77
2022/04/26 08:15:14;;;;;;;20.75;9.05;;;;;;;17.18;53.00;98675.81;4974364;28;20070;-76
2022/04/26 08:17:42;;;;;;;16.02;9.57;;;;;;;17.15;53.36;98677.34;4973261;28;20733;-76
2022/04/26 08:20:12;;;;;;;21.33;9.93;;;;;;;17.11;52.48;98682.03;4989162;28;20045;-77
2022/04/26 08:22:38;;;;;;;27.83;10.23;;;;;;;17.12;52.72;98672.59;4973962;28;20042;-83
2022/04/26 08:27:50;;;;;;;24.42;10.95;;;;;;;17.31;53.52;98675.22;4986076;28;20054;-83
2022/04/26 08:30:16;;;;;;;;;;;;;;;17.36;51.47;98680.44;4958883;28;20039;-83
2022/04/26 08:32:45;;;;;;;18.90;9.73;;;;;;;17.40;52.84;98683.25;4977409;28;20032;-80
2022/04/26 08:35:15;;;;;;;21.60;10.52;;;;;;;17.41;52.89;98679.31;4984193;28;20034;-82
2022/04/26 08:37:44;;;;;;;17.63;9.35;;;;;;;17.57;52.93;98677.16;4996370;28;20069;-78
2022/04/26 08:40:12;;;;;;;22.02;9.15;;;;;;;17.61;51.86;98683.53;4994287;28;20573;-81
2022/04/26 08:42:44;;;;;;;24.98;10.52;;;;;;;17.55;52.87;98681.47;4993627;28;20050;-79
2022/04/26 08:45:13;;;;;;;15.35;9.60;;;;;;;17.48;50.90;98676.66;4996385;28;20036;-80
2022/04/26 08:53:10;;;;;;;20.02;8.45;;;;;;;17.49;49.70;98677.44;4996962;28;20111;-81
2022/04/26 08:55:43;;;;;;;19.95;9.55;;;;;;;17.50;51.41;98671.53;4996242;28;20050;-79
2022/04/26 08:58:11;;;;;;;15.20;9.73;;;;;;;17.48;51.23;98670.31;4995044;28;20050;-80
2022/04/26 09:01:03;;;;;;;21.15;9.15;;;;;;;17.43;51.40;98665.13;4994577;28;20046;-79
2022/04/26 09:03:30;;;;;;;13.00;8.25;;;;;;;17.36;50.77;98669.38;4995985;28;20082;-79
2022/04/26 09:06:07;;;;;;;15.43;8.23;;;;;;;17.40;50.79;98672.19;4994538;28;20125;-78
2022/04/26 09:08:35;;;;;;;15.48;7.30;;;;;;;17.41;50.25;98667.47;4994329;28;20066;-78
2022/04/26 09:11:03;;;;;;;17.30;7.68;;;;;;;17.53;50.61;98667.22;4993184;28;20053;-79
2022/04/26 09:13:39;;;;;;;13.88;7.47;;;;;;;17.55;49.48;98667.66;4994435;28;20134;-78
2022/04/26 09:16:22;;;;;;;18.05;7.70;;;;;;;17.56;49.80;98669.25;5009149;28;20113;-82
2022/04/26 09:19:00;;;;;;;15.47;8.60;;;;;;;17.55;50.22;98657.41;5008578;28;20050;-82
2022/04/26 09:21:29;;;;;;;13.35;6.78;;;;;;;17.61;49.33;98664.19;4993640;28;20049;-81
2022/04/26 09:23:59;;;;;;;17.98;6.57;;;;;;;17.78;48.98;98670.31;4994507;28;20038;-82
2022/04/26 09:26:39;;;;;;;13.32;6.47;;;;;;;17.88;49.03;98666.91;4994708;28;20146;-79
2022/04/26 09:29:08;;;;;;;11.02;5.80;;;;;;;17.97;47.71;98667.38;4993675;28;20046;-78
2022/04/26 09:31:37;;;;;;;14.70;6.00;;;;;;;17.91;46.50;98662.56;4995453;28;20432;-77
2022/04/26 09:34:14;;;;;;;12.23;5.80;;;;;;;17.96;47.18;98673.31;4995396;28;20363;-77
2022/04/26 09:36:44;;;;;;;;;;;;;;;17.99;46.81;98664.25;4996802;28;20093;-77
2022/04/26 09:39:15;;;;;;;13.18;6.32;;;;;;;18.00;47.29;98666.63;4994281;28;19976;-77
2022/04/26 09:41:49;;;;;;;10.57;6.53;;;;;;;18.06;47.17;98669.88;4992083;28;20034;-77
2022/04/26 09:44:15;;;;;;;11.07;6.30;;;;;;;17.92;46.84;98670.50;4993730;28;20046;-77
2022/04/26 09:46:49;;;;;;;16.15;6.40;;;;;;;17.86;46.63;98671.22;4993924;28;20050;-80
2022/04/26 09:49:18;;;;;;;12.43;5.97;;;;;;;17.87;46.90;98667.28;4993568;28;20134;-79
2022/04/26 09:51:46;;;;;;;13.52;6.10;;;;;;;17.85;47.13;98667.66;4992029;28;20125;-77
2022/04/26 09:54:13;;;;;;;10.85;6.15;;;;;;;17.82;47.08;98671.19;4993102;28;20038;-77
2022/04/26 09:56:39;;;;;;;10.63;5.70;;;;;;;17.81;47.60;98669.56;4992951;28;20508;-77
2022/04/26 09:59:07;;;;;;;14.13;5.00;;;;;;;17.77;46.51;98668.75;4993405;28;20052;-77
2022/04/26 10:01:46;;;;;;;8.93;5.53;;;;;;;17.76;45.88;98667.13;4993255;28;20070;-77
2022/04/26 10:04:20;;;;;;;11.45;5.35;;;;;;;17.77;46.49;98677.03;4993207;28;20092;-81
2022/04/26 10:06:51;;;;;;;10.98;5.30;;;;;;;17.64;45.72;98662.63;4994824;28;20034;-77
2022/04/26 10:09:18;;;;;;;10.55;5.05;;;;;;;17.69;46.13;98673.38;4994389;28;20046;-77
2022/04/26 10:11:45;;;;;;;12.60;4.82;;;;;;;17.77;45.62;98677.81;4994874;28;20108;-80
2022/04/26 10:14:14;;;;;;;9.00;5.30;;;;;;;17.75;45.09;98685.69;4994008;28;20179;-77
2022/04/26 10:16:46;;;;;;;9.35;4.97;;;;;;;17.86;46.14;98680.31;4995305;28;20082;-78
2022/04/26 10:19:12;;;;;;;10.65;4.95;;;;;;;17.92;44.97;98683.53;4996714;28;20042;-84
2022/04/26 10:21:39;;;;;;;10.68;5.07;;;;;;;17.87;44.94;98679.13;4991982;28;20042;-78
2022/04/26 10:24:12;;;;;;;7.55;5.13;;;;;;;17.92;45.37;98680.78;5007777;28;20050;-78
2022/04/26 10:26:41;;;;;;;16.55;6.25;;;;;;;18.07;46.00;98676.97;4992575;28;20474;-80
2022/04/26 10:29:45;;;;;;;15.55;5.95;;;;;;;18.07;44.71;98685.28;4976109;28;20050;-79
2022/04/26 10:32:11;;;;;;;15.05;5.68;;;;;;;18.01;45.07;98679.31;4992979;28;20491;-78
2022/04/26 10:34:40;;;;;;;14.85;6.80;;;;;;;17.97;45.68;98670.16;4991740;28;20057;-79
2022/04/26 10:37:07;;;;;;;17.00;6.88;;;;;;;17.98;45.29;98682.81;4975674;28;20054;-79
2022/04/26 10:39:40;;;;;;;28.08;11.63;;;;;;;17.98;45.57;98679.25;4993974;28;20065;-78
2022/04/26 10:42:15;;;;;;;18.65;7.05;;;;;;;17.99;45.58;98683.63;4993620;28;20050;-78
2022/04/26 10:44:44;;;;;;;19.70;6.55;;;;;;;17.92;47.44;98673.28;4994065;28;20042;-79
2022/04/26 10:47:34;;;;;;;20.67;6.47;;;;;;;17.92;46.11;98687.09;4996542;28;20050;-79
2022/04/26 10:50:02;;;;;;;13.48;5.45;;;;;;;17.81;46.10;98675.09;4971665;28;20583;-83
2022/04/26 10:52:33;;;;;;;9.38;5.30;;;;;;;17.69;46.80;98676.13;4975373;28;20054;-81
2022/04/26 10:55:06;;;;;;;13.85;6.90;;;;;;;17.60;46.59;98675.63;4955660;28;20073;-80
2022/04/26 10:57:36;;;;;;;9.68;5.97;;;;;;;17.64;46.90;98681.97;4958479;28;20043;-81
2022/04/26 11:00:27;;;;;;;19.13;7.18;;;;;;;17.55;47.90;98682.28;4974330;28;20050;-79
2022/04/26 11:03:01;;;;;;;13.32;6.03;;;;;;;17.48;47.27;98690.47;4976135;28;20145;-80
2022/04/26 11:05:32;;;;;;;18.90;6.00;;;;;;;17.31;47.37;98688.25;4956582;28;20058;-79
2022/04/26 11:07:59;;;;;;;16.92;6.05;;;;;;;17.27;47.62;98690.16;4973757;28;20078;-79
2022/04/26 11:11:00;;;;;;;15.18;5.55;;;;;;;17.20;48.11;98690.06;4977032;28;20125;-82
2022/04/26 11:13:20;;;;;;;23.38;5.97;;;;;;;17.08;48.35;98688.31;4971014;28;20062;-79
2022/04/26 11:15:47;;;;;;;19.70;5.80;;;;;;;17.08;48.43;98682.78;4971080;28;20082;-82
2022/04/26 11:18:20;;;;;;;16.77;6.32;;;;;;;17.00;47.98;98687.41;4955250;28;20051;-79
2022/04/26 11:20:47;;;;;;;15.07;6.43;;;;;;;17.00;48.64;98681.88;4971718;28;20055;-82
2022/04/26 11:28:52;;;;;;;13.02;5.40;;;;;;;17.26;48.71;98694.09;4996166;28;20045;-79
2022/04/26 11:31:19;;;;;;;19.63;7.03;;;;;;;17.25;49.11;98679.50;4996305;28;20081;-78
2022/04/26 11:33:49;;;;;;;9.13;5.63;;;;;;;17.31;48.79;98680.75;4994059;28;20050;-80
2022/04/26 11:36:16;;;;;;;18.02;6.03;;;;;;;17.21;47.79;98678.63;4996265;28;20038;-79
2022/04/26 11:38:56;;;;;;;16.67;5.43;;;;;;;17.30;48.09;98684.69;4998347;28;20056;-81
2022/04/26 11:41:25;;;;;;;14.43;5.72;;;;;;;17.35;48.46;98670.56;4999492;28;20030;-82
2022/04/26 11:44:03;;;;;;;15.60;7.00;;;;;;;17.44;47.73;98670.25;5000339;28;20070;-79
2022/04/26 11:46:30;;;;;;;16.85;5.85;;;;;;;17.53;47.25;98670.78;4994917;28;20045;-76
2022/04/26 11:48:59;;;;;;;18.00;6.28;;;;;;;17.59;47.05;98668.50;4996274;28;20385;-81
2022/04/26 11:51:27;;;;;;;29.58;9.88;;;;;;;17.77;48.32;98665.97;5012492;28;20045;-78
2022/04/26 11:53:53;;;;;;;10.70;6.00;;;;;;;17.78;47.61;98670.31;4996481;28;20046;-82
2022/04/26 11:56:21;;;;;;;10.82;6.00;;;;;;;17.70;47.11;98663.88;4995388;28;20561;-80
2022/04/26 11:58:48;;;;;;;20.65;7.47;;;;;;;17.75;47.76;98666.34;4993815;28;20537;-78
2022/04/26 12:01:21;;;;;;;15.15;6.25;;;;;;;17.82;47.43;98671.19;4997982;28;20125;-77
2022/04/26 12:03:52;;;;;;;12.98;6.47;;;;;;;17.87;47.33;98656.22;4995271;28;20046;-79
2022/04/26 12:06:32;;;;;;;11.18;6.53;;;;;;;17.88;46.86;98647.56;4995098;28;20415;-78
2022/04/26 12:09:05;;;;;;;27.02;8.30;;;;;;;18.11;46.69;98652.91;4994969;28;20603;-81
2022/04/26 12:11:38;;;;;;;18.20;6.38;;;;;;;18.13;45.61;98655.31;4995750;28;20042;-82
2022/04/26 12:14:11;;;;;;;15.82;6.80;;;;;;;18.06;46.35;98654.06;4994152;28;20069;-77
2022/04/26 12:16:48;;;;;;;18.77;7.47;;;;;;;18.11;46.55;98658.44;4995462;28;20519;-78
2022/04/26 12:19:16;;;;;;;22.42;8.13;;;;;;;18.06;46.93;98645.75;4998357;28;20463;-78
2022/04/26 12:21:54;;;;;;;23.48;7.47;;;;;;;18.24;46.59;98645.13;4996105;28;20538;-78
2022/04/26 12:24:29;;;;;;;24.08;6.57;;;;;;;18.19;45.90;98654.59;4998952;28;20043;-81
2022/04/26 12:27:00;;;;;;;17.58;6.63;;;;;;;17.91;45.69;98638.47;4999256;28;20161;-83
2022/04/26 12:29:39;;;;;;;20.02;5.97;;;;;;;17.89;46.19;98656.66;4996529;28;20385;-78
2022/04/26 12:32:15;;;;;;;72.10;11.95;;;;;;;17.91;47.26;98645.97;4994411;28;20057;-77
2022/04/26 12:34:57;;;;;;;25.92;5.88;;;;;;;17.87;46.52;98656.22;4994130;28;20050;-77
2022/04/26 12:37:43;;;;;;;36.15;6.68;;;;;;;17.91;46.97;98646.78;4993739;28;20639;-76
2022/04/26 12:40:12;;;;;;;12.60;5.95;;;;;;;17.91;46.60;98646.78;4983498;28;20066;-75
2022/04/26 12:42:42;;;;;;;18.55;6.18;;;;;;;17.87;46.84;98642.38;4996135;28;20092;-79
2022/04/26 12:45:25;;;;;;;10.07;6.47;;;;;;;17.98;46.75;98646.06;4994197;28;20054;-78
2022/04/26 12:51:25;;;;;;;35.13;8.95;;;;;;;17.80;47.18;98656.94;4994461;28;20557;-77
2022/04/26 12:53:52;;;;;;;35.40;8.98;;;;;;;17.60;47.48;98657.06;4974804;28;20046;-75
2022/04/26 12:56:20;;;;;;;25.27;7.82;;;;;;;17.59;47.47;98649.16;4982124;28;20194;-77
2022/04/26 12:58:48;;;;;;;23.13;8.55;;;;;;;17.68;48.26;98660.72;4994136;28;20046;-77
2022/04/26 13:01:18;;;;;;;18.48;6.57;;;;;;;17.54;46.79;98643.94;4994351;28;20455;-77
2022/04/26 13:03:46;;;;;;;18.80;7.18;;;;;;;17.53;47.50;98645.13;4992311;28;20042;-77
2022/04/26 13:06:14;;;;;;;22.13;6.75;;;;;;;17.69;46.65;98651.25;4976133;28;20043;-77
2022/04/26 13:08:45;;;;;;;18.13;6.95;;;;;;;17.76;46.11;98651.34;4974993;28;20042;-77
2022/04/26 13:11:12;;;;;;;20.38;7.10;;;;;;;17.70;46.22;98641.78;4976745;28;20043;-78
2022/04/26 13:13:39;;;;;;;16.38;7.03;;;;;;;17.87;46.21;98653.44;4975319;28;20428;-77
2022/04/26 13:16:06;;;;;;;31.77;11.30;;;;;;;17.96;46.38;98656.72;4974819;28;20408;-77
2022/04/26 13:18:33;;;;;;;28.85;8.45;;;;;;;17.89;45.29;98651.91;4974158;28;20042;-77
2022/04/26 13:21:01;;;;;;;15.60;6.60;;;;;;;17.77;44.68;98654.91;4974338;28;20424;-77
2022/04/26 13:23:34;;;;;;;17.27;7.38;;;;;;;17.82;45.07;98655.38;4974283;28;20060;-78
2022/04/26 13:26:01;;;;;;;20.02;6.78;;;;;;;17.70;44.60;98663.88;4957215;28;20034;-79
2022/04/26 13:28:28;;;;;;;21.73;7.43;;;;;;;17.58;45.61;98662.19;4976350;28;20053;-79
2022/04/26 13:30:54;;;;;;;30.60;7.68;;;;;;;17.61;45.57;98653.13;4993217;28;20042;-78
2022/04/26 13:33:21;;;;;;;23.67;7.20;;;;;;;17.61;44.92;98657.84;4996812;28;20119;-77
2022/04/26 13:35:48;;;;;;;23.05;6.28;;;;;;;17.55;44.41;98651.88;4985131;28;20042;-78
2022/04/26 13:38:16;;;;;;;28.85;6.68;;;;;;;17.56;44.70;98661.75;4994035;28;20070;-77
2022/04/26 13:40:43;;;;;;;48.92;7.57;;;;;;;17.67;45.25;98661.09;4992122;28;20046;-77
2022/04/26 13:43:10;;;;;;;32.88;6.85;;;;;;;17.74;45.27;98661.97;4993164;28;20050;-79
2022/04/26 13:45:36;;;;;;;27.35;7.57;;;;;;;17.87;44.88;98654.25;4994152;28;20149;-77
2022/04/26 13:48:09;;;;;;;15.57;6.50;;;;;;;17.65;43.89;98644.91;4995457;28;20058;-76
2022/04/26 13:50:35;;;;;;;9.60;5.57;;;;;;;17.64;43.56;98648.00;4995344;28;20472;-79
2022/04/26 13:53:02;;;;;;;15.15;6.32;;;;;;;17.63;44.69;98646.44;4993635;28;20515;-78
2022/04/26 13:55:28;;;;;;;39.92;7.07;;;;;;;17.80;44.13;98652.19;4975928;28;20085;-77
2022/04/26 13:57:55;;;;;;;;;;;;;;;17.68;44.08;98654.38;4991495;28;20053;-77
2022/04/26 14:00:22;;;;;;;20.25;7.07;;;;;;;17.70;44.47;98652.03;4993052;28;19925;-77
2022/04/26 14:02:49;;;;;;;17.40;5.57;;;;;;;17.78;44.07;98648.22;4992699;28;20553;-79
2022/04/26 14:05:17;;;;;;;;;;;;;;;17.67;44.92;98650.03;4992527;28;20038;-78
2022/04/26 14:07:47;;;;;;;18.92;5.90;;;;;;;17.52;44.42;98635.25;4992501;28;19937;-78
2022/04/26 14:10:15;;;;;;;20.23;6.43;;;;;;;17.58;44.19;98636.50;4993295;28;20042;-78
2022/04/26 14:12:42;;;;;;;20.20;6.80;;;;;;;17.63;44.17;98630.63;4988924;28;20096;-77
2022/04/26 14:23:30;;;;;;;11.02;4.78;;;;;;;18.43;41.37;98639.41;5049974;28;20049;-76
2022/04/26 14:25:57;;;;;;;13.30;4.78;;;;;;;18.36;41.56;98639.34;5040612;28;20045;-76
2022/04/26 14:28:23;;;;;;;10.20;5.57;;;;;;;18.33;41.68;98639.31;5039276;28;20073;-77
2022/04/26 14:30:49;;;;;;;14.98;6.03;;;;;;;18.34;40.49;98651.94;5013619;28;20120;-76
2022/04/26 14:33:18;;;;;;;10.18;6.05;;;;;;;18.22;41.47;98650.28;5013911;28;20398;-76
2022/04/26 14:35:44;;;;;;;27.70;6.82;;;;;;;18.04;42.61;98647.31;5027040;28;20036;-76
2022/04/26 14:38:10;;;;;;;16.63;5.40;;;;;;;17.88;41.97;98655.03;5022282;28;20037;-76
2022/04/26 14:40:38;;;;;;;25.00;5.15;;;;;;;17.78;40.75;98651.78;5032421;28;20041;-75
2022/04/26 14:43:09;;;;;;;20.80;5.00;;;;;;;17.70;42.21;98663.09;5013220;28;20628;-76
2022/04/26 14:45:44;;;;;;;50.10;7.22;;;;;;;17.59;42.64;98660.22;5033795;28;20109;-77
2022/04/26 14:48:10;;;;;;;10.75;4.68;;;;;;;17.46;41.88;98659.66;5032693;28;20160;-75
2022/04/26 14:50:42;;;;;;;25.77;6.35;;;;;;;17.43;41.96;98649.34;5033363;28;20501;-75
2022/04/26 14:53:11;;;;;;;65.55;7.80;;;;;;;17.43;42.48;98656.84;5045521;28;20044;-75
2022/04/26 14:55:40;;;;;;;32.90;6.78;;;;;;;17.45;42.44;98658.06;5048654;28;20070;-77
2022/04/26 14:58:11;;;;;;;35.53;6.18;;;;;;;17.46;42.20;98656.09;5048587;28;20067;-75
2022/04/26 15:00:38;;;;;;;21.38;5.43;;;;;;;17.40;43.06;98655.63;5049980;28;20124;-76
2022/04/26 15:03:06;;;;;;;55.00;7.57;;;;;;;17.51;43.19;98652.97;5033374;28;20049;-75
2022/04/26 15:05:39;;;;;;;60.38;10.40;;;;;;;17.46;44.99;98656.88;5049628;28;20136;-78
2022/04/26 15:10:50;;;;;;;24.33;5.90;;;;;;;17.45;42.33;98654.47;5052114;28;20041;-75
2022/04/26 15:18:47;;;;;;;153.52;15.60;;;;;;;17.46;43.51;98667.94;5049974;28;20045;-77
2022/04/26 15:21:13;;;;;;;53.47;7.85;;;;;;;17.46;42.71;98667.94;5055527;28;20120;-79
2022/04/26 15:23:39;;;;;;;12.93;4.75;;;;;;;17.36;41.86;98661.09;5056361;28;20418;-78
2022/04/26 15:26:10;;;;;;;13.00;4.87;;;;;;;17.22;43.44;98654.56;5055736;28;20037;-79
2022/04/26 15:28:37;;;;;;;20.17;5.40;;;;;;;17.16;42.47;98667.13;5038460;28;20280;-78
2022/04/26 15:31:05;;;;;;;12.55;4.40;;;;;;;17.04;42.98;98671.69;5055375;28;20110;-78
2022/04/26 15:33:32;;;;;;;12.77;4.30;;;;;;;16.98;42.83;98670.41;5054869;28;20052;-83
2022/04/26 15:36:01;;;;;;;18.27;4.45;;;;;;;16.86;43.35;98678.91;5060933;28;20037;-76
2022/04/26 15:38:29;;;;;;;15.30;4.50;;;;;;;16.82;44.01;98673.34;5053153;28;20049;-77
2022/04/26 15:41:08;;;;;;;12.13;4.10;;;;;;;16.75;43.49;98686.22;5047274;28;20135;-76
2022/04/26 15:43:42;;;;;;;16.13;4.13;;;;;;;16.72;43.21;98681.38;5053378;28;20045;-76
2022/04/26 15:46:10;;;;;;;21.58;4.50;;;;;;;16.62;43.60;98685.56;5042043;28;20140;-77
2022/04/26 15:48:47;;;;;;;10.43;4.00;;;;;;;16.59;44.62;98689.09;5049208;28;20047;-77